Time;durP1;ratioP1;P1;durP2;ratioP2;P2;SDS_P1;SDS_P2;PMS_P1;PMS_P2;Temp;Humidity;BMP_temperature;BMP_pressure;BME280_temperature;BME280_humidity;BME280_pressure;Samples;Min_cycle;Max_cycle;Signal;HPM_P1;HPM_P2
2021/05/10 00:00:10;;;;;;;2.92;2.20;;;;;;;11.38;68.84;92160.72;2112306;28;20576;-86
2021/05/10 00:01:12;;;;;;;3.10;2.20;;;;;;;11.28;69.17;92167.97;2106984;28;20103;-83
2021/05/10 00:02:12;;;;;;;4.22;2.67;;;;;;;11.16;69.30;92160.84;2104089;27;20023;-84
2021/05/10 00:03:13;;;;;;;5.53;2.22;;;;;;;11.03;70.94;92169.72;2112743;28;20023;-84
2021/05/10 00:04:14;;;;;;;3.85;2.50;;;;;;;11.08;70.81;92165.72;2103722;28;20035;-86
2021/05/10 00:05:15;;;;;;;4.75;2.15;;;;;;;11.08;70.47;92163.78;2104020;28;20260;-84
2021/05/10 00:06:15;;;;;;;7.05;2.80;;;;;;;11.00;71.33;92172.50;2117589;27;20900;-85
2021/05/10 00:07:16;;;;;;;5.20;2.20;;;;;;;10.95;71.18;92162.41;2108260;28;20048;-85
2021/05/10 00:08:17;;;;;;;7.30;2.50;;;;;;;10.93;71.40;92170.09;2112542;28;20040;-85
2021/05/10 00:09:18;;;;;;;3.70;2.42;;;;;;;10.92;72.31;92163.28;2112788;28;20113;-83
2021/05/10 00:10:20;;;;;;;2.63;2.30;;;;;;;10.89;72.88;92166.81;2102729;28;20047;-84
2021/05/10 00:11:20;;;;;;;3.45;2.55;;;;;;;10.83;72.88;92167.41;2103046;27;20028;-84
2021/05/10 00:12:21;;;;;;;3.13;2.28;;;;;;;10.84;73.24;92173.47;2110128;28;20032;-87
2021/05/10 00:13:22;;;;;;;3.75;2.33;;;;;;;10.74;73.23;92169.28;2112426;28;20038;-86
2021/05/10 00:14:38;;;;;;;3.22;2.55;;;;;;;10.77;73.05;92166.50;2113162;28;20024;-83
2021/05/10 00:15:39;;;;;;;3.53;2.42;;;;;;;10.79;73.47;92169.47;2111227;27;20020;-85
2021/05/10 00:16:40;;;;;;;6.75;2.60;;;;;;;10.78;73.82;92172.59;2113280;28;20507;-84
2021/05/10 00:17:41;;;;;;;4.63;2.50;;;;;;;10.79;73.12;92182.81;2112814;28;20127;-83
2021/05/10 00:18:41;;;;;;;5.50;2.72;;;;;;;10.74;74.61;92174.63;2100622;28;20517;-85
2021/05/10 00:19:42;;;;;;;2.67;2.15;;;;;;;10.71;74.96;92178.94;2111726;28;20042;-83
2021/05/10 00:20:45;;;;;;;4.00;2.63;;;;;;;10.71;74.42;92175.50;2126415;27;20022;-83
2021/05/10 00:21:46;;;;;;;5.47;2.80;;;;;;;10.73;73.83;92171.22;2117540;27;20145;-85
2021/05/10 00:22:47;;;;;;;7.03;2.50;;;;;;;10.71;73.60;92162.91;2108977;27;20495;-83
2021/05/10 00:23:47;;;;;;;5.07;2.40;;;;;;;10.74;73.13;92166.63;2111858;28;20472;-83
2021/05/10 00:24:48;;;;;;;5.55;2.30;;;;;;;10.57;75.05;92164.16;2113206;28;20424;-83
2021/05/10 00:25:49;;;;;;;4.90;2.70;;;;;;;10.61;74.98;92163.31;2120583;27;20015;-85
2021/05/10 00:26:50;;;;;;;2.60;2.40;;;;;;;10.58;74.81;92152.31;2121809;27;20050;-85
2021/05/10 00:27:50;;;;;;;4.32;2.70;;;;;;;10.60;74.75;92151.88;2113573;28;20032;-87
2021/05/10 00:28:51;;;;;;;5.05;2.30;;;;;;;10.57;74.84;92158.81;2105113;28;20016;-84
2021/05/10 00:29:52;;;;;;;2.95;2.40;;;;;;;10.56;74.78;92148.59;2099766;28;20024;-85
2021/05/10 00:30:52;;;;;;;6.13;2.60;;;;;;;10.47;74.90;92148.53;2120596;27;20023;-85
2021/05/10 00:31:53;;;;;;;5.13;3.03;;;;;;;10.49;75.33;92146.94;2122546;27;20111;-85
2021/05/10 00:32:54;;;;;;;5.18;2.30;;;;;;;10.48;75.37;92145.41;2121744;27;20023;-86
2021/05/10 00:33:54;;;;;;;3.90;2.75;;;;;;;10.45;75.19;92148.25;2121737;27;20031;-84
2021/05/10 00:34:55;;;;;;;4.30;2.78;;;;;;;10.35;75.74;92144.75;2108859;28;20019;-85
2021/05/10 00:35:56;;;;;;;3.70;2.45;;;;;;;10.35;75.93;92144.75;2100495;28;20066;-83
2021/05/10 00:36:56;;;;;;;4.15;2.83;;;;;;;10.26;76.98;92145.47;2112968;28;20019;-85
2021/05/10 00:37:58;;;;;;;5.55;2.60;;;;;;;10.17;76.54;92141.97;2109968;27;20494;-84
2021/05/10 00:38:59;;;;;;;5.25;2.70;;;;;;;10.13;77.12;92144.75;2118560;27;20023;-83
2021/05/10 00:39:59;;;;;;;3.30;2.40;;;;;;;10.16;76.48;92141.22;2116600;27;20026;-85
2021/05/10 00:41:00;;;;;;;5.30;2.50;;;;;;;10.26;76.43;92144.72;2113211;28;20058;-85
2021/05/10 00:42:01;;;;;;;4.15;2.78;;;;;;;10.23;76.84;92143.66;2118577;27;20029;-85
2021/05/10 00:43:02;;;;;;;4.38;2.65;;;;;;;10.14;76.39;92138.25;2113417;27;20443;-86
2021/05/10 00:44:03;;;;;;;3.85;2.70;;;;;;;10.11;76.68;92139.13;2104567;28;20024;-84
2021/05/10 00:45:05;;;;;;;3.80;2.80;;;;;;;10.07;77.16;92135.84;2092092;28;20436;-83
2021/05/10 00:46:06;;;;;;;2.78;2.58;;;;;;;10.13;77.21;92136.00;2110291;27;20358;-84
2021/05/10 00:47:07;;;;;;;7.90;2.90;;;;;;;10.08;76.79;92140.72;2119105;27;20034;-83
2021/05/10 00:48:07;;;;;;;5.93;3.15;;;;;;;10.04;76.82;92134.03;2110057;27;20509;-86
2021/05/10 00:49:08;;;;;;;6.18;2.72;;;;;;;10.02;76.53;92139.06;2108174;28;20031;-83
2021/05/10 00:50:10;;;;;;;5.97;2.90;;;;;;;10.00;76.54;92130.75;2104957;28;20020;-83
2021/05/10 00:51:10;;;;;;;4.38;2.80;;;;;;;9.97;76.46;92126.28;2118293;27;20034;-85
2021/05/10 00:52:11;;;;;;;5.40;2.50;;;;;;;9.92;76.78;92132.94;2128455;27;20065;-85
2021/05/10 00:53:12;;;;;;;8.15;2.60;;;;;;;9.88;76.21;92129.66;2109509;27;20023;-84
2021/05/10 00:54:13;;;;;;;3.13;2.67;;;;;;;9.88;76.20;92131.53;2106009;28;20050;-85
2021/05/10 00:55:14;;;;;;;5.25;2.65;;;;;;;9.90;76.44;92126.53;2119626;27;20018;-86
2021/05/10 00:56:16;;;;;;;7.38;3.03;;;;;;;9.84;76.89;92129.75;2117601;27;20039;-84
2021/05/10 00:57:18;;;;;;;5.70;2.90;;;;;;;9.81;77.06;92135.97;2112264;27;20085;-85
2021/05/10 00:58:19;;;;;;;4.90;3.00;;;;;;;9.78;77.13;92120.81;2113679;27;20031;-85
2021/05/10 00:59:19;;;;;;;9.18;2.45;;;;;;;9.83;77.03;92122.94;2119414;27;20411;-84
2021/05/10 01:00:22;;;;;;;5.03;2.90;;;;;;;9.80;75.96;92118.47;2120218;27;20030;-85
2021/05/10 01:01:23;;;;;;;7.53;2.83;;;;;;;9.78;77.35;92128.06;2108131;27;20072;-86
2021/05/10 01:02:24;;;;;;;4.45;2.92;;;;;;;9.83;77.42;92117.59;2105162;28;20062;-83
2021/05/10 01:03:25;;;;;;;4.22;2.60;;;;;;;9.77;76.98;92123.94;2104526;28;20035;-83
2021/05/10 01:04:26;;;;;;;4.35;2.72;;;;;;;9.83;76.20;92122.19;2104266;28;20078;-85
2021/05/10 01:05:27;;;;;;;6.78;2.92;;;;;;;9.82;76.69;92116.09;2101572;28;20024;-84
2021/05/10 01:06:27;;;;;;;6.50;2.80;;;;;;;9.79;76.91;92125.00;2102830;28;20024;-84
2021/05/10 01:07:28;;;;;;;3.08;2.75;;;;;;;9.83;76.74;92124.84;2106403;28;20063;-86
2021/05/10 01:08:29;;;;;;;3.88;2.83;;;;;;;9.78;76.97;92115.47;2110361;28;20051;-85
2021/05/10 01:09:29;;;;;;;7.22;2.63;;;;;;;9.80;77.14;92113.13;2118242;27;20027;-85
2021/05/10 01:10:30;;;;;;;5.28;2.40;;;;;;;9.76;77.42;92125.09;2116697;27;20030;-86
2021/05/10 01:11:31;;;;;;;4.78;2.80;;;;;;;9.70;76.87;92116.91;2116896;27;20484;-86
2021/05/10 01:12:32;;;;;;;5.40;2.80;;;;;;;9.67;77.57;92122.38;2118334;27;20769;-86
2021/05/10 01:13:32;;;;;;;4.15;2.72;;;;;;;9.62;77.61;92113.00;2104832;28;20023;-85
2021/05/10 01:14:34;;;;;;;5.47;2.70;;;;;;;9.57;77.69;92110.91;2101581;28;20377;-84
2021/05/10 01:15:35;;;;;;;4.65;2.80;;;;;;;9.50;77.78;92108.47;2114584;27;20519;-85
2021/05/10 01:16:36;;;;;;;5.22;2.85;;;;;;;9.58;77.78;92107.03;2103192;28;20062;-83
2021/05/10 01:17:38;;;;;;;3.00;2.63;;;;;;;9.67;77.19;92119.72;2113860;28;20023;-85
2021/05/10 01:18:40;;;;;;;3.42;2.75;;;;;;;9.65;77.42;92124.72;2110118;28;20116;-84
2021/05/10 01:19:41;;;;;;;3.20;2.90;;;;;;;9.64;78.29;92128.56;2105435;28;20374;-83
2021/05/10 01:20:44;;;;;;;4.82;3.20;;;;;;;9.65;78.13;92127.38;2118075;27;20019;-83
2021/05/10 01:21:47;;;;;;;4.93;3.00;;;;;;;9.55;77.67;92113.25;2112570;27;20035;-84
2021/05/10 01:22:51;;;;;;;3.45;2.53;;;;;;;9.51;78.56;92121.34;2106161;28;20027;-82
2021/05/10 01:23:52;;;;;;;3.65;2.65;;;;;;;9.48;79.24;92124.91;2113751;28;20028;-86
2021/05/10 01:24:53;;;;;;;3.58;2.55;;;;;;;9.44;79.27;92124.28;2117974;27;20030;-84
2021/05/10 01:25:54;;;;;;;2.45;2.25;;;;;;;9.42;79.35;92115.22;2108695;27;20480;-83
2021/05/10 01:26:55;;;;;;;5.75;3.17;;;;;;;9.41;79.45;92116.41;2114241;27;20027;-84
2021/05/10 01:27:57;;;;;;;5.80;2.80;;;;;;;9.37;79.52;92108.50;2112699;28;20023;-86
2021/05/10 01:28:58;;;;;;;3.10;2.60;;;;;;;9.37;78.82;92115.75;2112829;27;20022;-84
2021/05/10 01:29:59;;;;;;;4.68;2.90;;;;;;;9.34;79.49;92114.69;2116800;27;20055;-83
2021/05/10 01:30:59;;;;;;;4.35;2.55;;;;;;;9.34;78.97;92120.03;2126633;27;20023;-84
2021/05/10 01:32:00;;;;;;;3.10;2.80;;;;;;;9.28;78.71;92119.84;2112166;27;20107;-86
2021/05/10 01:33:03;;;;;;;5.38;2.83;;;;;;;9.30;79.45;92120.16;2112430;28;20086;-83
2021/05/10 01:34:04;;;;;;;3.17;2.80;;;;;;;9.28;79.20;92122.50;2119853;27;20027;-85
2021/05/10 01:35:08;;;;;;;4.70;3.00;;;;;;;9.25;79.17;92114.63;2113690;27;20412;-84
2021/05/10 01:36:09;;;;;;;4.65;2.92;;;;;;;9.21;80.03;92117.41;2112711;28;20031;-85
2021/05/10 01:37:10;;;;;;;3.38;2.80;;;;;;;9.19;80.00;92111.75;2112439;28;20347;-86
2021/05/10 01:38:11;;;;;;;3.30;2.53;;;;;;;9.26;79.85;92111.53;2118171;27;20031;-84
2021/05/10 01:39:11;;;;;;;4.22;2.75;;;;;;;9.20;79.43;92115.16;2117820;27;20027;-84
2021/05/10 01:40:13;;;;;;;3.97;2.63;;;;;;;9.24;79.83;92119.22;2113069;27;20028;-83
2021/05/10 01:41:14;;;;;;;4.05;2.60;;;;;;;9.16;79.24;92122.53;2114637;27;20029;-84
2021/05/10 01:42:15;;;;;;;4.88;3.00;;;;;;;9.05;79.42;92118.31;2107784;28;20027;-85
2021/05/10 01:43:17;;;;;;;5.13;2.75;;;;;;;9.02;79.47;92115.75;2111897;28;20106;-85
2021/05/10 01:44:17;;;;;;;3.30;2.50;;;;;;;9.03;79.93;92115.31;2117945;27;20074;-83
2021/05/10 01:45:18;;;;;;;2.90;2.58;;;;;;;8.97;80.82;92121.63;2118935;27;20038;-85
2021/05/10 01:46:19;;;;;;;4.80;2.78;;;;;;;8.98;80.62;92123.84;2108735;27;20054;-83
2021/05/10 01:47:19;;;;;;;4.60;3.08;;;;;;;8.91;80.83;92129.44;2107906;28;20396;-84
2021/05/10 01:48:20;;;;;;;5.88;2.72;;;;;;;8.96;80.58;92125.47;2095925;28;20032;-84
2021/05/10 01:49:20;;;;;;;3.47;2.85;;;;;;;8.98;80.53;92120.44;2093249;28;20040;-83
2021/05/10 01:50:21;;;;;;;4.80;2.75;;;;;;;8.95;80.06;92122.03;2098607;28;20031;-84
2021/05/10 01:51:25;;;;;;;3.30;3.00;;;;;;;8.93;79.94;92123.66;2103350;28;20028;-83
2021/05/10 01:52:26;;;;;;;4.75;3.10;;;;;;;8.87;80.65;92130.69;2108750;28;20031;-84
2021/05/10 01:53:28;;;;;;;3.47;2.90;;;;;;;8.84;80.79;92121.66;2107945;28;20033;-85
2021/05/10 01:54:29;;;;;;;3.88;2.55;;;;;;;8.82;81.13;92121.31;2109824;28;20464;-84
2021/05/10 01:55:29;;;;;;;4.13;3.00;;;;;;;8.81;80.94;92133.16;2107558;28;20028;-84
2021/05/10 01:56:30;;;;;;;4.75;3.55;;;;;;;8.80;81.04;92137.00;2103952;28;20055;-85
2021/05/10 01:57:31;;;;;;;3.28;2.90;;;;;;;8.83;80.93;92136.88;2104179;28;20028;-85
2021/05/10 01:58:32;;;;;;;3.08;2.83;;;;;;;8.79;81.57;92125.59;2111964;28;20099;-83
2021/05/10 01:59:33;;;;;;;6.90;2.80;;;;;;;8.80;79.84;92121.75;2108351;28;20026;-85
2021/05/10 02:00:44;;;;;;;3.70;2.50;;;;;;;8.78;80.74;92123.34;2118098;27;20027;-85
2021/05/10 02:01:46;;;;;;;4.68;2.70;;;;;;;8.79;81.18;92106.19;2115009;28;20083;-83
2021/05/10 02:02:46;;;;;;;4.00;3.00;;;;;;;8.82;80.99;92111.41;2116170;28;20023;-85
2021/05/10 02:05:13;;;;;;;3.88;2.55;;;;;;;8.78;81.21;92102.03;2131417;27;20541;-86
2021/05/10 02:06:14;;;;;;;4.40;2.90;;;;;;;8.80;80.69;92094.38;2115925;28;20096;-83
2021/05/10 02:07:15;;;;;;;5.20;2.80;;;;;;;8.67;81.27;92097.03;2106925;28;20019;-85
2021/05/10 02:08:17;;;;;;;4.13;2.95;;;;;;;8.66;81.30;92102.81;2115250;28;20054;-86
2021/05/10 02:09:23;;;;;;;5.07;2.85;;;;;;;8.63;81.60;92107.06;2123269;27;20019;-85
2021/05/10 02:10:34;;;;;;;4.85;2.92;;;;;;;8.62;81.38;92104.84;2123456;27;20030;-83
2021/05/10 02:11:34;;;;;;;6.25;3.33;;;;;;;8.62;82.29;92102.91;2115243;28;20027;-86
2021/05/10 02:12:35;;;;;;;4.68;2.95;;;;;;;8.55;82.04;92108.44;2108057;28;20024;-85
2021/05/10 02:13:36;;;;;;;3.25;2.95;;;;;;;8.57;81.88;92112.19;2105566;28;20058;-85
2021/05/10 02:14:37;;;;;;;3.78;2.60;;;;;;;8.58;82.37;92112.94;2106946;28;20139;-85
2021/05/10 02:15:40;;;;;;;5.95;2.67;;;;;;;8.64;81.90;92097.88;2106507;28;20043;-86
2021/05/10 02:16:40;;;;;;;4.05;3.20;;;;;;;8.62;82.94;92088.84;2107422;28;20106;-86
2021/05/10 02:17:41;;;;;;;4.20;3.05;;;;;;;8.55;82.59;92087.88;2115162;28;20421;-85
2021/05/10 02:18:42;;;;;;;3.47;3.17;;;;;;;8.61;82.30;92090.78;2116239;28;20024;-86
2021/05/10 02:19:43;;;;;;;6.07;2.65;;;;;;;8.71;81.42;92103.00;2114567;28;20468;-85
2021/05/10 02:20:44;;;;;;;5.53;2.88;;;;;;;8.72;81.34;92104.50;2123414;27;20034;-86
2021/05/10 02:21:45;;;;;;;4.28;3.13;;;;;;;8.66;82.34;92111.53;2114432;28;20016;-85
2021/05/10 02:23:15;;;;;;;4.13;2.88;;;;;;;8.68;82.64;92111.09;2099226;28;20021;-86
2021/05/10 02:24:16;;;;;;;6.32;3.17;;;;;;;8.65;81.71;92117.28;2106245;28;20020;-86
2021/05/10 02:25:24;;;;;;;5.28;2.83;;;;;;;8.68;82.04;92116.44;2105314;28;20028;-86
2021/05/10 02:26:25;;;;;;;4.90;3.10;;;;;;;8.66;82.00;92105.47;2115647;27;20446;-86
2021/05/10 02:27:26;;;;;;;6.82;3.35;;;;;;;8.64;82.12;92100.56;2115540;28;20028;-84
2021/05/10 02:28:29;;;;;;;9.60;2.90;;;;;;;8.68;82.08;92101.19;2106424;28;20032;-86
2021/05/10 02:29:31;;;;;;;4.85;3.13;;;;;;;8.64;81.60;92113.88;2101199;28;20110;-86
2021/05/10 02:30:33;;;;;;;4.97;2.70;;;;;;;8.66;81.55;92116.13;2102529;28;20028;-86
2021/05/10 02:31:33;;;;;;;3.92;2.90;;;;;;;8.64;80.93;92116.53;2097930;28;20163;-86
2021/05/10 02:32:34;;;;;;;4.97;2.90;;;;;;;8.62;80.90;92115.50;2115791;28;20023;-85
2021/05/10 02:33:35;;;;;;;4.00;3.03;;;;;;;8.56;81.55;92124.03;2123624;27;20061;-85
2021/05/10 02:34:35;;;;;;;7.70;3.20;;;;;;;8.63;81.79;92122.31;2124127;27;20374;-86
2021/05/10 02:35:36;;;;;;;3.40;3.10;;;;;;;8.69;82.02;92117.91;2123102;27;20031;-84
2021/05/10 02:36:37;;;;;;;3.55;3.15;;;;;;;8.70;82.13;92119.44;2115250;28;20024;-84
2021/05/10 02:37:38;;;;;;;4.10;3.17;;;;;;;8.69;81.48;92120.56;2106333;28;20020;-85
2021/05/10 02:38:39;;;;;;;4.15;3.13;;;;;;;8.68;81.55;92121.75;2114579;28;20055;-84
2021/05/10 02:39:40;;;;;;;3.85;3.38;;;;;;;8.70;81.89;92132.75;2113702;28;20019;-83
2021/05/10 02:40:40;;;;;;;7.38;3.28;;;;;;;8.73;82.12;92135.28;2106288;28;20028;-83
2021/05/10 02:41:41;;;;;;;4.38;3.10;;;;;;;8.79;81.33;92141.59;2099374;28;20693;-85
2021/05/10 02:42:43;;;;;;;5.03;3.42;;;;;;;8.79;81.35;92146.91;2104921;28;20028;-85
2021/05/10 02:43:44;;;;;;;4.32;3.10;;;;;;;8.86;80.94;92158.50;2106082;28;20111;-87
2021/05/10 02:44:44;;;;;;;5.68;3.10;;;;;;;8.90;81.63;92167.16;2105745;28;20475;-85
2021/05/10 02:45:45;;;;;;;6.80;2.83;;;;;;;8.87;81.84;92170.66;2114637;28;20028;-84
2021/05/10 02:46:46;;;;;;;5.43;2.97;;;;;;;8.94;80.93;92155.19;2107174;28;20144;-86
2021/05/10 02:47:49;;;;;;;3.85;3.25;;;;;;;9.14;80.56;92154.97;2098018;28;20016;-85
2021/05/10 02:48:49;;;;;;;7.47;4.72;;;;;;;9.12;80.20;92167.97;2107187;28;20076;-85
2021/05/10 02:49:50;;;;;;;7.00;4.75;;;;;;;9.15;80.08;92171.72;2113740;28;20020;-85
2021/05/10 02:50:51;;;;;;;7.53;4.88;;;;;;;9.16;79.93;92181.19;2105954;28;20020;-85
2021/05/10 02:51:51;;;;;;;5.75;4.00;;;;;;;9.35;79.11;92190.88;2114858;27;20023;-85
2021/05/10 02:52:53;;;;;;;7.95;3.03;;;;;;;9.46;78.72;92183.25;2106962;28;20020;-83
2021/05/10 02:53:54;;;;;;;2.53;2.08;;;;;;;9.98;72.41;92176.56;2106571;27;20051;-85
2021/05/10 02:54:54;;;;;;;2.92;1.88;;;;;;;10.57;68.15;92164.16;2115299;28;20016;-86
2021/05/10 02:55:56;;;;;;;7.30;1.92;;;;;;;11.24;62.98;92167.38;2105610;28;20021;-86
2021/05/10 02:56:56;;;;;;;2.63;1.83;;;;;;;11.56;61.38;92166.09;2114534;28;20030;-84
2021/05/10 02:57:57;;;;;;;3.15;1.67;;;;;;;12.04;59.71;92148.41;2106927;28;20032;-85
2021/05/10 02:58:58;;;;;;;4.13;2.25;;;;;;;12.13;59.60;92163.00;2096986;28;20021;-87
2021/05/10 02:59:58;;;;;;;8.25;2.08;;;;;;;12.50;57.30;92172.44;2097977;28;20025;-83
2021/05/10 03:00:59;;;;;;;4.18;1.90;;;;;;;12.56;57.57;92172.59;2105882;28;20523;-84
2021/05/10 03:02:00;;;;;;;2.97;1.55;;;;;;;12.83;56.10;92177.13;2112881;28;20017;-85
2021/05/10 03:03:00;;;;;;;3.38;1.90;;;;;;;12.87;55.22;92185.75;2113360;28;20035;-85
2021/05/10 03:04:01;;;;;;;5.57;1.70;;;;;;;12.89;55.87;92182.63;2113783;28;20116;-83
2021/05/10 03:05:04;;;;;;;4.07;1.70;;;;;;;13.14;54.32;92184.16;2104536;28;20032;-83
2021/05/10 03:06:05;;;;;;;4.60;1.70;;;;;;;13.09;55.97;92193.56;2104599;27;20038;-84
2021/05/10 03:07:06;;;;;;;3.15;1.90;;;;;;;13.07;54.91;92182.53;2104662;28;20409;-82
2021/05/10 03:08:06;;;;;;;3.38;1.55;;;;;;;13.25;52.81;92174.44;2110162;28;20047;-83
2021/05/10 03:09:07;;;;;;;4.28;1.85;;;;;;;13.19;54.91;92178.91;2113888;28;20020;-85
2021/05/10 03:10:10;;;;;;;3.50;1.70;;;;;;;13.40;52.72;92179.88;2097240;28;20041;-83
2021/05/10 03:11:11;;;;;;;4.07;1.70;;;;;;;13.34;54.04;92181.69;2098088;28;20375;-85
2021/05/10 03:12:12;;;;;;;3.65;1.42;;;;;;;13.37;54.53;92182.72;2113224;28;20057;-84
2021/05/10 03:13:12;;;;;;;4.18;1.67;;;;;;;13.26;55.00;92189.34;2121832;27;20539;-84
2021/05/10 03:14:13;;;;;;;2.33;1.52;;;;;;;13.44;54.02;92188.50;2105172;28;20654;-84
2021/05/10 03:15:15;;;;;;;2.05;1.60;;;;;;;13.65;52.07;92194.03;2105262;28;20023;-84
2021/05/10 03:16:16;;;;;;;1.90;1.60;;;;;;;13.45;54.52;92191.94;2109779;27;20185;-84
2021/05/10 03:17:17;;;;;;;3.40;1.67;;;;;;;13.34;55.38;92185.13;2100971;28;20025;-85
2021/05/10 03:18:18;;;;;;;8.07;2.22;;;;;;;13.33;54.21;92183.63;2095655;28;20120;-84
2021/05/10 03:19:19;;;;;;;2.80;1.35;;;;;;;13.55;52.72;92190.69;2108963;28;20084;-83
2021/05/10 03:20:22;;;;;;;5.32;1.55;;;;;;;13.58;52.76;92187.09;2124385;27;20088;-84
2021/05/10 03:21:22;;;;;;;3.13;1.50;;;;;;;13.74;52.76;92186.69;2107297;28;20031;-83
2021/05/10 03:22:23;;;;;;;4.30;1.80;;;;;;;13.67;52.73;92181.66;2106962;28;20563;-85
2021/05/10 03:23:24;;;;;;;3.42;1.63;;;;;;;13.67;52.27;92188.97;2126295;27;20034;-84
2021/05/10 03:24:24;;;;;;;3.65;1.40;;;;;;;13.59;52.89;92185.88;2124366;27;20027;-84
2021/05/10 03:25:25;;;;;;;2.30;1.60;;;;;;;13.57;53.09;92186.34;2115954;27;20023;-84
2021/05/10 03:26:26;;;;;;;3.33;1.60;;;;;;;13.61;52.58;92191.56;2107620;28;20023;-83
2021/05/10 03:27:26;;;;;;;3.28;1.50;;;;;;;13.66;52.69;92187.50;2101670;28;20023;-82
2021/05/10 03:28:27;;;;;;;2.67;1.63;;;;;;;13.60;53.26;92196.16;2107933;28;20504;-84
2021/05/10 03:29:28;;;;;;;1.88;1.45;;;;;;;13.66;52.46;92203.59;2115770;27;20034;-83
2021/05/10 03:30:28;;;;;;;3.45;1.50;;;;;;;13.83;52.59;92204.69;2116292;27;20115;-82
2021/05/10 03:31:30;;;;;;;4.90;1.50;;;;;;;13.77;52.29;92203.81;2100678;28;20036;-83
2021/05/10 03:32:30;;;;;;;1.70;1.40;;;;;;;13.69;53.26;92200.72;2091475;28;20437;-83
2021/05/10 03:33:31;;;;;;;1.67;1.40;;;;;;;13.63;54.42;92205.25;2097114;28;20083;-83
2021/05/10 03:34:32;;;;;;;2.13;1.73;;;;;;;13.59;54.21;92200.03;2106575;28;20314;-85
2021/05/10 03:35:33;;;;;;;4.22;1.85;;;;;;;13.58;54.43;92187.09;2107319;28;20024;-83
2021/05/10 03:36:33;;;;;;;4.35;1.70;;;;;;;13.59;54.17;92183.19;2109218;28;20486;-84
2021/05/10 03:37:34;;;;;;;3.00;1.50;;;;;;;13.59;53.78;92173.19;2091436;28;20470;-84
2021/05/10 03:38:35;;;;;;;2.28;2.08;;;;;;;13.52;56.13;92170.88;2090386;28;20445;-81
2021/05/10 03:39:35;;;;;;;8.00;3.30;;;;;;;13.45;56.04;92168.50;2099723;28;20073;-84
2021/05/10 03:40:36;;;;;;;8.40;3.72;;;;;;;13.41;57.18;92167.94;2108492;28;20698;-82
2021/05/10 03:41:37;;;;;;;6.57;4.10;;;;;;;13.28;59.95;92159.38;2107303;28;20023;-84
2021/05/10 03:42:39;;;;;;;6.32;3.65;;;;;;;13.24;57.42;92156.09;2098938;28;20024;-83
2021/05/10 03:43:40;;;;;;;6.53;3.17;;;;;;;13.19;57.86;92156.72;2100205;28;20063;-85
2021/05/10 03:44:40;;;;;;;5.30;3.58;;;;;;;13.16;58.40;92154.94;2100418;28;20021;-84
2021/05/10 03:45:41;;;;;;;6.38;3.70;;;;;;;13.07;59.56;92148.41;2108038;28;20046;-83
2021/05/10 03:46:42;;;;;;;7.00;5.75;;;;;;;13.01;59.30;92138.75;2109307;28;20424;-83
2021/05/10 03:47:43;;;;;;;6.20;4.10;;;;;;;12.94;61.06;92137.13;2110656;28;20019;-83
2021/05/10 03:48:43;;;;;;;5.15;3.35;;;;;;;12.83;62.36;92136.91;2107303;28;20496;-82
2021/05/10 03:49:44;;;;;;;4.57;2.78;;;;;;;12.79;61.97;92134.38;2113703;27;20098;-85
2021/05/10 03:50:45;;;;;;;7.90;2.67;;;;;;;12.73;63.20;92132.75;2106067;28;20024;-83
2021/05/10 03:51:45;;;;;;;3.47;2.40;;;;;;;12.57;64.31;92137.28;2090690;28;20025;-84
2021/05/10 03:52:48;;;;;;;3.75;2.42;;;;;;;12.52;65.10;92129.88;2099478;28;20032;-83
2021/05/10 03:53:48;;;;;;;4.13;2.40;;;;;;;12.50;65.60;92126.13;2109106;28;20028;-83
2021/05/10 03:54:49;;;;;;;3.78;1.83;;;;;;;12.43;65.89;92132.56;2109329;28;20032;-84
2021/05/10 03:55:50;;;;;;;3.42;2.30;;;;;;;12.34;65.82;92124.56;2104897;28;20020;-84
2021/05/10 03:56:51;;;;;;;5.00;2.28;;;;;;;12.27;66.13;92127.53;2116535;27;20404;-83
2021/05/10 03:57:52;;;;;;;4.30;2.42;;;;;;;12.27;66.72;92132.91;2107558;28;20338;-84
2021/05/10 03:58:53;;;;;;;5.22;2.30;;;;;;;12.29;66.72;92127.81;2091301;28;20025;-83
2021/05/10 03:59:54;;;;;;;2.47;1.95;;;;;;;12.16;67.42;92135.28;2098812;28;20023;-83
2021/05/10 04:00:54;;;;;;;6.45;2.00;;;;;;;12.13;66.76;92136.22;2099172;28;20027;-82
2021/05/10 04:01:58;;;;;;;3.58;2.03;;;;;;;12.10;66.85;92122.50;2108198;28;20066;-86
2021/05/10 04:03:03;;;;;;;2.00;1.80;;;;;;;12.05;67.51;92133.84;2108675;28;20464;-84
2021/05/10 04:06:34;;;;;;;3.78;2.25;;;;;;;11.87;68.00;92127.75;2116761;27;20055;-83
2021/05/10 04:10:42;;;;;;;3.40;2.05;;;;;;;11.81;69.09;92140.97;2085288;28;20061;-82
2021/05/10 04:14:20;;;;;;;3.05;2.13;;;;;;;11.68;70.80;92132.34;2075970;28;20038;-84
2021/05/10 04:15:22;;;;;;;6.03;2.33;;;;;;;11.69;70.81;92136.50;2066990;28;20037;-82
2021/05/10 04:16:22;;;;;;;3.28;2.30;;;;;;;11.65;71.56;92144.69;2112391;27;20062;-84
2021/05/10 04:17:23;;;;;;;5.75;2.58;;;;;;;11.56;73.16;92139.34;2109033;28;20519;-83
2021/05/10 04:18:24;;;;;;;4.03;2.50;;;;;;;11.59;71.98;92143.81;2100419;28;20036;-85
2021/05/10 04:19:24;;;;;;;6.65;2.92;;;;;;;11.60;72.46;92137.25;2107065;28;20122;-87
2021/05/10 04:20:25;;;;;;;6.00;2.72;;;;;;;11.56;72.84;92134.72;2098865;28;20024;-84
2021/05/10 04:21:26;;;;;;;5.28;2.30;;;;;;;11.58;72.23;92131.59;2091648;28;20024;-85
2021/05/10 04:22:26;;;;;;;4.38;2.20;;;;;;;11.57;72.79;92140.81;2099296;28;20074;-85
2021/05/10 04:23:27;;;;;;;6.72;3.08;;;;;;;11.58;71.81;92143.03;2115334;27;20110;-85
2021/05/10 04:24:28;;;;;;;3.83;2.70;;;;;;;11.56;71.68;92140.06;2116242;27;20102;-85
2021/05/10 04:25:29;;;;;;;4.82;3.35;;;;;;;11.52;72.65;92131.44;2099678;28;20024;-84
2021/05/10 04:26:29;;;;;;;8.73;4.18;;;;;;;11.53;72.52;92129.50;2099872;28;20032;-85
2021/05/10 04:27:30;;;;;;;8.68;5.20;;;;;;;11.49;73.76;92135.00;2107632;28;20428;-83
2021/05/10 04:28:31;;;;;;;7.10;5.45;;;;;;;11.47;74.79;92145.41;2100841;28;20024;-82
2021/05/10 04:29:32;;;;;;;9.35;6.05;;;;;;;11.46;74.44;92143.19;2108363;28;20457;-82
2021/05/10 04:30:33;;;;;;;9.10;5.88;;;;;;;11.47;74.48;92142.75;2116124;27;20073;-84
2021/05/10 04:31:33;;;;;;;9.25;6.50;;;;;;;11.47;74.48;92140.06;2107621;28;20020;-85
2021/05/10 04:32:34;;;;;;;8.32;5.70;;;;;;;11.46;74.46;92145.88;2105991;28;20121;-84
2021/05/10 04:33:35;;;;;;;8.35;6.88;;;;;;;11.42;75.27;92139.91;2117059;27;20383;-83
2021/05/10 04:34:35;;;;;;;8.70;6.25;;;;;;;11.45;74.59;92134.41;2116354;27;20023;-85
2021/05/10 04:35:36;;;;;;;9.43;6.43;;;;;;;11.45;75.20;92131.72;2100923;28;20065;-84
2021/05/10 04:36:37;;;;;;;10.18;6.43;;;;;;;11.43;75.48;92138.72;2090924;28;20406;-84
2021/05/10 04:37:38;;;;;;;9.00;6.25;;;;;;;11.48;74.51;92140.81;2100684;28;20033;-83
2021/05/10 04:38:42;;;;;;;9.00;6.72;;;;;;;11.50;74.79;92149.91;2114854;27;20072;-86
2021/05/10 04:39:43;;;;;;;13.00;6.80;;;;;;;11.49;74.81;92147.66;2116330;27;20490;-83
2021/05/10 04:40:44;;;;;;;9.98;6.45;;;;;;;11.52;74.02;92150.19;2099670;28;20023;-84
2021/05/10 04:41:45;;;;;;;7.45;6.63;;;;;;;11.50;74.16;92162.50;2107529;28;20026;-82
2021/05/10 04:42:47;;;;;;;13.43;7.82;;;;;;;11.52;73.48;92160.16;2115515;27;20420;-84
2021/05/10 04:43:48;;;;;;;8.82;7.93;;;;;;;11.55;72.40;92160.00;2125156;27;20113;-82
2021/05/10 04:44:50;;;;;;;9.77;8.02;;;;;;;11.55;71.97;92162.69;2115775;27;20024;-84
2021/05/10 04:45:51;;;;;;;10.70;6.95;;;;;;;11.60;71.52;92164.03;2106534;28;20031;-83
2021/05/10 04:46:52;;;;;;;8.07;5.55;;;;;;;11.60;70.91;92156.72;2099820;28;20024;-84
2021/05/10 04:47:52;;;;;;;8.90;5.63;;;;;;;11.61;70.86;92165.50;2100852;28;20527;-83
2021/05/10 04:48:53;;;;;;;10.25;5.53;;;;;;;11.66;69.82;92164.16;2107209;28;20028;-85
2021/05/10 04:49:54;;;;;;;6.57;5.43;;;;;;;11.71;69.32;92160.91;2125372;27;20019;-84
2021/05/10 04:50:55;;;;;;;10.73;6.75;;;;;;;11.72;69.62;92162.38;2115173;27;20027;-85
2021/05/10 04:51:56;;;;;;;11.93;9.98;;;;;;;11.75;68.50;92166.84;2099451;28;20016;-84
2021/05/10 04:52:57;;;;;;;17.25;12.00;;;;;;;11.71;69.05;92177.69;2107324;28;20034;-85
2021/05/10 04:53:57;;;;;;;12.52;7.65;;;;;;;11.70;68.37;92172.78;2097713;28;20120;-82
2021/05/10 04:54:58;;;;;;;14.85;11.13;;;;;;;11.73;68.54;92175.34;2100169;28;20071;-84
2021/05/10 04:55:59;;;;;;;15.88;11.57;;;;;;;11.74;68.84;92174.13;2116890;27;20119;-85
2021/05/10 04:56:59;;;;;;;13.57;8.20;;;;;;;11.76;69.74;92169.06;2115502;27;20416;-83
2021/05/10 04:58:00;;;;;;;11.07;7.30;;;;;;;11.78;69.75;92166.69;2107505;28;20020;-84
2021/05/10 04:59:01;;;;;;;9.23;6.38;;;;;;;11.79;71.04;92175.47;2108716;28;20031;-84